Flight Track Log - Related Links

Times and Time Zones

All times are in EST time to prevent confusion due to time zone crossing. See the BMBR609 flight status page for this flight to view local times or setup timezone preferences in your user account.

Time Position Orientation Groundspeed Altitude Reporting Facility
EST Latitude Longitude Course Direction KTS MPH feet Rate Location/Type
Thu 12:19:03 AM -32.0447 115.7435 35° Northeast 148 170 1,400  Level Aus ATC (RADAR)
Thu 12:19:38 AM -32.0258 115.7590 35° Northeast 138 159 1,400  Level Aus ATC (RADAR)
Thu 12:19:53 AM -32.0177 115.7665 38° Northeast 142 163 1,400 109 Level Aus ATC (RADAR)
Thu 12:20:33 AM -31.9967 115.7861 38° Northeast 143 165 1,500 141 Climbing Aus ATC (RADAR)
Thu 12:21:18 AM -31.9732 115.8083 39° Northeast 142 163 1,600 -150 Climbing Aus ATC (RADAR)
Thu 12:21:53 AM -31.9550 115.8257 39° Northeast 144 166 1,300 -133 Descending Aus ATC (RADAR)
Thu 12:22:48 AM -31.9276 115.8538 41° Northeast 141 162 1,400 86 Climbing Aus ATC (RADAR)
Thu 12:23:03 AM -31.9195 115.8614 39° Northeast 144 166 1,400 126 Level Aus ATC (RADAR)
Thu 12:24:23 AM -31.8782 115.8995 38° Northeast 145 167 1,600 63 Climbing Aus ATC (RADAR)
Thu 12:24:38 AM -31.8707 115.9077 43° Northeast 145 167 1,500  Descending Aus ATC (RADAR)
Thu 12:25:17 AM -31.8494 115.9285 40° Northeast 146 168 1,600 -67 Climbing Aus ATC (RADAR)
Thu 12:26:08 AM -31.8237 115.9553 41° Northeast 146 168 1,400 -67 Descending Aus ATC (RADAR)
Thu 12:26:47 AM -31.8041 115.9759 42° Northeast 140 161 1,500 -173 Climbing Aus ATC (RADAR)
Thu 12:27:52 AM -31.7731 116.0105 43° Northeast 142 163 1,100 -200 Descending Aus ATC (RADAR)
Thu 12:28:17 AM -31.7631 116.0248 51° Northeast 132 152 1,200 240 Climbing Aus ATC (RADAR)
Thu 12:29:32 AM -31.7441 116.0744 66° East 128 147 1,500 133 Climbing Aus ATC (RADAR)
Thu 12:29:47 AM -31.7382 116.0830 51° Northeast 130 150 1,400 -109 Descending Aus ATC (RADAR)
Thu 12:30:27 AM -31.7150 116.0991 31° Northeast 142 163 1,400 -67 Level Aus ATC (RADAR)
Thu 12:31:17 AM -31.6884 116.0857 337° Northwest 143 165 1,300 -71 Descending Aus ATC (RADAR)
Thu 12:31:52 AM -31.6977 116.0621 245° Southwest 138 159 1,300 -225 Level Aus ATC (RADAR)
Thu 12:32:37 AM -31.7116 116.0882 122° Southeast 113 130 1,000 -80 Descending Aus ATC (RADAR)
Thu 12:33:07 AM -31.6972 116.0871 356° North 114 131 1,200 120 Climbing Aus ATC (RADAR)
Thu 12:34:17 AM -31.7165 116.0456 241° Southwest 146 168 1,200 -57 Level Aus ATC (RADAR)
Thu 12:34:52 AM -31.7359 116.0576 152° Southeast 141 162 1,100 -120 Descending Aus ATC (RADAR)
Thu 12:35:07 AM -31.7375 116.0683 100° East 134 154 1,100 109 Level Aus ATC (RADAR)
Thu 12:35:47 AM -31.7257 116.0931 61° Northeast 133 153 1,200 -379 Climbing Aus ATC (RADAR)
Thu 12:36:42 AM -31.7067 116.0673 311° West 155 178 500  Descending Aus ATC (RADAR)
Thu 12:37:21 AM -31.7148 116.0467 245° Southwest 144 166 1,200 337 Climbing Aus ATC (RADAR)
Thu 12:38:11 AM -31.6982 116.0322 323° Northwest 133 153 1,000 -198 Descending Aus ATC (RADAR)
Thu 12:39:22 AM -31.6548 116.0325 360° North 132 152 800 -238 Descending Aus ATC (RADAR)
Thu 12:39:52 AM -31.6447 116.0167 307° West 145 167 600 -500 Descending Aus ATC (RADAR)
Thu 12:40:46 AM -31.6730 116.0150 183° South 97 112 100 -303 Descending Aus ATC (RADAR)
Thu 12:41:31 AM -31.6791 116.0165 168° South 20 23 100  Level Aus ATC (RADAR)
Thu 12:41:51 AM -31.6795 116.0168 147° Southeast 10 12 100  Level Aus ATC (RADAR)
Thu 12:43:00 AM -31.7095 116.0071 319° Northwest  Level Estimated
Thu 12:50:00 AM -31.8919 115.9480 319° Northwest  Level Estimated

Login

Don't have an account? Register now (free) for customized features, flight alerts, and more!